Grandville, Michigan
Current Conditions -  °F | °C
As of 10:53 AM on Wednesday 26 Nov 2014 (Local Time) from KGRR Reporting Station
Light Snow Light Snow  
Wind Chill: 20°   Ceiling: 3600
Heat Index: 29°   Visibility: 9mi
Dew Point: 21°   Wind: 10mph
Humidity: 72%   Direction: 110°ESE
Pressure: 30.16"   Gusts: NA
Location:  42.91°N, 85.76°W
Report Text: KGRR 261553Z 11009KT 9SM -SN SCT024 OVC036 M02/M06 A3016 RMK AO2 SNB08 SLP224 P0000 T10171061
Loading
Personal Weather Stations






























Interactive Weather Map New forecast layout! Learn more

10-Day Weather Forecast

Advertisements
Track Severe Weather on mobile